sensor_id;sensor_type;location;lat;lon;timestamp;P1;durP1;ratioP1;P2;durP2;ratioP2
65407;SDS011;52017;51.230;-2.322;2022-10-16T00:00:53;15.10;;;3.57;;
65407;SDS011;52017;51.230;-2.322;2022-10-16T00:04:35;15.23;;;2.73;;
65407;SDS011;52017;51.230;-2.322;2022-10-16T00:08:17;10.90;;;2.77;;
65407;SDS011;52017;51.230;-2.322;2022-10-16T00:11:58;13.80;;;2.60;;
65407;SDS011;52017;51.230;-2.322;2022-10-16T00:15:41;13.03;;;3.50;;
65407;SDS011;52017;51.230;-2.322;2022-10-16T00:19:25;18.37;;;4.23;;
65407;SDS011;52017;51.230;-2.322;2022-10-16T00:23:07;12.07;;;2.80;;
65407;SDS011;52017;51.230;-2.322;2022-10-16T00:26:49;13.13;;;2.67;;
65407;SDS011;52017;51.230;-2.322;2022-10-16T00:30:32;10.63;;;2.33;;
65407;SDS011;52017;51.230;-2.322;2022-10-16T00:34:14;15.10;;;2.87;;
65407;SDS011;52017;51.230;-2.322;2022-10-16T00:37:56;11.27;;;2.63;;
65407;SDS011;52017;51.230;-2.322;2022-10-16T00:41:38;10.33;;;2.73;;
65407;SDS011;52017;51.230;-2.322;2022-10-16T00:45:20;10.87;;;2.60;;
65407;SDS011;52017;51.230;-2.322;2022-10-16T00:52:46;8.87;;;1.83;;
65407;SDS011;52017;51.230;-2.322;2022-10-16T00:56:31;12.23;;;2.40;;
65407;SDS011;52017;51.230;-2.322;2022-10-16T01:00:16;10.47;;;2.30;;
65407;SDS011;52017;51.230;-2.322;2022-10-16T01:04:00;10.18;;;2.28;;
65407;SDS011;52017;51.230;-2.322;2022-10-16T01:07:49;7.50;;;2.40;;
65407;SDS011;52017;51.230;-2.322;2022-10-16T01:16:07;8.00;;;1.90;;
65407;SDS011;52017;51.230;-2.322;2022-10-16T01:27:43;11.47;;;2.20;;
65407;SDS011;52017;51.230;-2.322;2022-10-16T01:31:29;3.43;;;1.20;;
65407;SDS011;52017;51.230;-2.322;2022-10-16T01:35:20;10.97;;;2.30;;
65407;SDS011;52017;51.230;-2.322;2022-10-16T01:39:06;11.20;;;2.47;;
65407;SDS011;52017;51.230;-2.322;2022-10-16T01:43:12;8.80;;;2.03;;
65407;SDS011;52017;51.230;-2.322;2022-10-16T01:46:59;10.60;;;1.80;;
65407;SDS011;52017;51.230;-2.322;2022-10-16T01:50:43;12.87;;;2.73;;
65407;SDS011;52017;51.230;-2.322;2022-10-16T01:54:30;9.83;;;1.97;;
65407;SDS011;52017;51.230;-2.322;2022-10-16T01:58:14;14.70;;;3.07;;
65407;SDS011;52017;51.230;-2.322;2022-10-16T02:01:58;11.20;;;2.07;;
65407;SDS011;52017;51.230;-2.322;2022-10-16T02:05:47;9.73;;;2.03;;
65407;SDS011;52017;51.230;-2.322;2022-10-16T02:09:38;12.40;;;2.67;;
65407;SDS011;52017;51.230;-2.322;2022-10-16T02:13:37;8.83;;;2.40;;
65407;SDS011;52017;51.230;-2.322;2022-10-16T02:17:26;7.97;;;2.27;;
65407;SDS011;52017;51.230;-2.322;2022-10-16T02:21:16;10.13;;;2.10;;
65407;SDS011;52017;51.230;-2.322;2022-10-16T02:25:40;11.73;;;1.92;;
65407;SDS011;52017;51.230;-2.322;2022-10-16T02:29:18;11.10;;;2.00;;
65407;SDS011;52017;51.230;-2.322;2022-10-16T02:33:06;16.60;;;2.67;;
65407;SDS011;52017;51.230;-2.322;2022-10-16T02:36:50;12.23;;;2.67;;
65407;SDS011;52017;51.230;-2.322;2022-10-16T02:40:34;10.27;;;1.80;;
65407;SDS011;52017;51.230;-2.322;2022-10-16T02:44:17;14.90;;;2.10;;
65407;SDS011;52017;51.230;-2.322;2022-10-16T02:47:58;12.23;;;2.20;;
65407;SDS011;52017;51.230;-2.322;2022-10-16T02:51:40;16.20;;;2.73;;
65407;SDS011;52017;51.230;-2.322;2022-10-16T02:55:22;12.20;;;2.30;;
65407;SDS011;52017;51.230;-2.322;2022-10-16T02:59:05;13.60;;;2.90;;
65407;SDS011;52017;51.230;-2.322;2022-10-16T03:02:47;10.63;;;2.23;;
65407;SDS011;52017;51.230;-2.322;2022-10-16T03:06:29;8.20;;;2.40;;
65407;SDS011;52017;51.230;-2.322;2022-10-16T03:10:11;10.50;;;2.30;;
65407;SDS011;52017;51.230;-2.322;2022-10-16T03:13:53;8.17;;;2.07;;
65407;SDS011;52017;51.230;-2.322;2022-10-16T03:17:35;9.03;;;1.80;;
65407;SDS011;52017;51.230;-2.322;2022-10-16T03:21:17;8.90;;;1.63;;
65407;SDS011;52017;51.230;-2.322;2022-10-16T03:24:59;12.10;;;2.37;;
65407;SDS011;52017;51.230;-2.322;2022-10-16T03:28:41;7.80;;;2.10;;
65407;SDS011;52017;51.230;-2.322;2022-10-16T03:32:23;15.23;;;2.63;;
65407;SDS011;52017;51.230;-2.322;2022-10-16T03:36:06;9.80;;;1.90;;
65407;SDS011;52017;51.230;-2.322;2022-10-16T03:39:48;12.47;;;2.40;;
65407;SDS011;52017;51.230;-2.322;2022-10-16T03:43:30;12.23;;;2.77;;
65407;SDS011;52017;51.230;-2.322;2022-10-16T03:47:12;8.90;;;2.23;;
65407;SDS011;52017;51.230;-2.322;2022-10-16T03:50:54;11.07;;;2.43;;
65407;SDS011;52017;51.230;-2.322;2022-10-16T03:54:36;9.23;;;2.07;;
65407;SDS011;52017;51.230;-2.322;2022-10-16T03:58:18;8.97;;;1.97;;
65407;SDS011;52017;51.230;-2.322;2022-10-16T04:02:01;11.33;;;2.10;;
65407;SDS011;52017;51.230;-2.322;2022-10-16T04:05:43;13.77;;;2.50;;
65407;SDS011;52017;51.230;-2.322;2022-10-16T04:09:25;9.00;;;1.73;;
65407;SDS011;52017;51.230;-2.322;2022-10-16T04:13:07;8.13;;;1.67;;
65407;SDS011;52017;51.230;-2.322;2022-10-16T04:16:49;7.93;;;1.87;;
65407;SDS011;52017;51.230;-2.322;2022-10-16T04:20:32;9.40;;;2.00;;
65407;SDS011;52017;51.230;-2.322;2022-10-16T04:24:14;8.63;;;1.90;;
65407;SDS011;52017;51.230;-2.322;2022-10-16T04:27:56;10.20;;;1.93;;
65407;SDS011;52017;51.230;-2.322;2022-10-16T04:31:38;5.07;;;1.37;;
65407;SDS011;52017;51.230;-2.322;2022-10-16T04:35:20;7.93;;;2.00;;
65407;SDS011;52017;51.230;-2.322;2022-10-16T04:39:03;12.37;;;2.93;;
65407;SDS011;52017;51.230;-2.322;2022-10-16T04:42:45;10.90;;;1.97;;
65407;SDS011;52017;51.230;-2.322;2022-10-16T04:46:27;11.63;;;2.53;;
65407;SDS011;52017;51.230;-2.322;2022-10-16T04:50:09;9.80;;;2.43;;
65407;SDS011;52017;51.230;-2.322;2022-10-16T04:53:51;9.87;;;1.90;;
65407;SDS011;52017;51.230;-2.322;2022-10-16T04:57:33;10.83;;;2.47;;
65407;SDS011;52017;51.230;-2.322;2022-10-16T05:01:15;6.47;;;1.63;;
65407;SDS011;52017;51.230;-2.322;2022-10-16T05:04:57;9.23;;;2.07;;
65407;SDS011;52017;51.230;-2.322;2022-10-16T05:08:39;12.33;;;3.10;;
65407;SDS011;52017;51.230;-2.322;2022-10-16T05:12:21;9.13;;;2.30;;
65407;SDS011;52017;51.230;-2.322;2022-10-16T05:16:03;8.80;;;2.00;;
65407;SDS011;52017;51.230;-2.322;2022-10-16T05:19:45;12.67;;;2.30;;
65407;SDS011;52017;51.230;-2.322;2022-10-16T05:23:27;10.60;;;2.50;;
65407;SDS011;52017;51.230;-2.322;2022-10-16T05:27:09;11.77;;;2.20;;
65407;SDS011;52017;51.230;-2.322;2022-10-16T05:30:52;9.20;;;2.30;;
65407;SDS011;52017;51.230;-2.322;2022-10-16T05:34:34;13.03;;;2.27;;
65407;SDS011;52017;51.230;-2.322;2022-10-16T05:38:17;16.67;;;2.67;;
65407;SDS011;52017;51.230;-2.322;2022-10-16T05:41:59;12.60;;;2.47;;
65407;SDS011;52017;51.230;-2.322;2022-10-16T05:45:41;13.47;;;2.57;;
65407;SDS011;52017;51.230;-2.322;2022-10-16T05:49:24;11.00;;;1.93;;
65407;SDS011;52017;51.230;-2.322;2022-10-16T05:53:06;16.67;;;2.97;;
65407;SDS011;52017;51.230;-2.322;2022-10-16T05:56:48;10.73;;;2.80;;
65407;SDS011;52017;51.230;-2.322;2022-10-16T06:00:30;10.50;;;3.40;;
65407;SDS011;52017;51.230;-2.322;2022-10-16T06:04:12;10.73;;;3.17;;
65407;SDS011;52017;51.230;-2.322;2022-10-16T06:07:54;16.50;;;2.67;;
65407;SDS011;52017;51.230;-2.322;2022-10-16T06:11:36;13.57;;;3.70;;
65407;SDS011;52017;51.230;-2.322;2022-10-16T06:15:18;11.60;;;2.60;;
65407;SDS011;52017;51.230;-2.322;2022-10-16T06:19:00;9.90;;;2.57;;
65407;SDS011;52017;51.230;-2.322;2022-10-16T06:22:42;13.17;;;2.47;;
65407;SDS011;52017;51.230;-2.322;2022-10-16T06:26:25;17.70;;;3.70;;
65407;SDS011;52017;51.230;-2.322;2022-10-16T06:30:08;11.73;;;3.30;;
65407;SDS011;52017;51.230;-2.322;2022-10-16T06:33:51;12.37;;;3.03;;
65407;SDS011;52017;51.230;-2.322;2022-10-16T06:37:33;16.80;;;3.17;;
65407;SDS011;52017;51.230;-2.322;2022-10-16T06:41:15;10.10;;;2.67;;
65407;SDS011;52017;51.230;-2.322;2022-10-16T06:44:59;16.23;;;2.60;;
65407;SDS011;52017;51.230;-2.322;2022-10-16T06:48:41;11.63;;;3.00;;
65407;SDS011;52017;51.230;-2.322;2022-10-16T06:52:23;14.87;;;3.03;;
65407;SDS011;52017;51.230;-2.322;2022-10-16T06:56:09;35.80;;;7.13;;
65407;SDS011;52017;51.230;-2.322;2022-10-16T06:59:53;61.63;;;10.43;;
65407;SDS011;52017;51.230;-2.322;2022-10-16T07:03:36;61.20;;;11.50;;
65407;SDS011;52017;51.230;-2.322;2022-10-16T07:07:19;24.43;;;5.23;;
65407;SDS011;52017;51.230;-2.322;2022-10-16T07:11:02;18.23;;;3.17;;
65407;SDS011;52017;51.230;-2.322;2022-10-16T07:14:47;10.93;;;2.00;;
65407;SDS011;52017;51.230;-2.322;2022-10-16T07:18:29;13.37;;;2.20;;
65407;SDS011;52017;51.230;-2.322;2022-10-16T07:22:10;11.13;;;2.47;;
65407;SDS011;52017;51.230;-2.322;2022-10-16T07:25:53;14.43;;;3.20;;
65407;SDS011;52017;51.230;-2.322;2022-10-16T07:29:35;12.73;;;3.60;;
65407;SDS011;52017;51.230;-2.322;2022-10-16T07:33:18;15.13;;;3.20;;
65407;SDS011;52017;51.230;-2.322;2022-10-16T07:37:00;16.17;;;3.00;;
65407;SDS011;52017;51.230;-2.322;2022-10-16T07:40:41;14.33;;;2.90;;
65407;SDS011;52017;51.230;-2.322;2022-10-16T07:44:23;11.20;;;3.23;;
65407;SDS011;52017;51.230;-2.322;2022-10-16T07:48:05;12.43;;;2.50;;
65407;SDS011;52017;51.230;-2.322;2022-10-16T07:51:47;15.20;;;2.37;;
65407;SDS011;52017;51.230;-2.322;2022-10-16T07:55:29;13.40;;;3.07;;
65407;SDS011;52017;51.230;-2.322;2022-10-16T07:59:11;18.17;;;3.27;;
65407;SDS011;52017;51.230;-2.322;2022-10-16T08:02:53;14.50;;;3.07;;
65407;SDS011;52017;51.230;-2.322;2022-10-16T08:06:36;14.00;;;2.60;;
65407;SDS011;52017;51.230;-2.322;2022-10-16T08:10:20;11.53;;;2.50;;
65407;SDS011;52017;51.230;-2.322;2022-10-16T08:14:04;15.47;;;2.40;;
65407;SDS011;52017;51.230;-2.322;2022-10-16T08:17:57;14.33;;;2.30;;
65407;SDS011;52017;51.230;-2.322;2022-10-16T08:21:40;10.03;;;2.27;;
65407;SDS011;52017;51.230;-2.322;2022-10-16T08:25:22;16.27;;;3.23;;
65407;SDS011;52017;51.230;-2.322;2022-10-16T08:29:05;14.30;;;2.40;;
65407;SDS011;52017;51.230;-2.322;2022-10-16T08:32:47;10.93;;;2.30;;
65407;SDS011;52017;51.230;-2.322;2022-10-16T08:36:29;15.90;;;2.90;;
65407;SDS011;52017;51.230;-2.322;2022-10-16T08:51:43;15.45;;;2.53;;
65407;SDS011;52017;51.230;-2.322;2022-10-16T08:55:32;11.40;;;2.38;;
65407;SDS011;52017;51.230;-2.322;2022-10-16T08:59:31;15.60;;;3.10;;
65407;SDS011;52017;51.230;-2.322;2022-10-16T09:03:17;11.02;;;3.40;;
65407;SDS011;52017;51.230;-2.322;2022-10-16T09:07:18;12.10;;;2.85;;
65407;SDS011;52017;51.230;-2.322;2022-10-16T09:11:08;17.77;;;2.95;;
65407;SDS011;52017;51.230;-2.322;2022-10-16T09:15:14;9.40;;;2.47;;
65407;SDS011;52017;51.230;-2.322;2022-10-16T09:19:20;8.90;;;2.35;;
65407;SDS011;52017;51.230;-2.322;2022-10-16T09:23:22;8.90;;;2.77;;
65407;SDS011;52017;51.230;-2.322;2022-10-16T09:27:12;14.45;;;2.97;;
65407;SDS011;52017;51.230;-2.322;2022-10-16T09:30:55;10.77;;;2.20;;
65407;SDS011;52017;51.230;-2.322;2022-10-16T09:34:39;11.90;;;2.35;;
65407;SDS011;52017;51.230;-2.322;2022-10-16T09:38:37;6.88;;;1.92;;
65407;SDS011;52017;51.230;-2.322;2022-10-16T09:42:25;9.43;;;2.58;;
65407;SDS011;52017;51.230;-2.322;2022-10-16T09:50:05;9.75;;;3.00;;
65407;SDS011;52017;51.230;-2.322;2022-10-16T09:57:51;10.50;;;2.20;;
65407;SDS011;52017;51.230;-2.322;2022-10-16T10:01:38;8.80;;;2.38;;
65407;SDS011;52017;51.230;-2.322;2022-10-16T10:05:28;10.38;;;2.45;;
65407;SDS011;52017;51.230;-2.322;2022-10-16T10:13:19;7.32;;;1.85;;
65407;SDS011;52017;51.230;-2.322;2022-10-16T10:21:00;10.32;;;2.15;;
65407;SDS011;52017;51.230;-2.322;2022-10-16T10:36:42;10.48;;;2.70;;
65407;SDS011;52017;51.230;-2.322;2022-10-16T11:12:05;12.57;;;2.50;;
65407;SDS011;52017;51.230;-2.322;2022-10-16T11:16:03;7.82;;;2.28;;
65407;SDS011;52017;51.230;-2.322;2022-10-16T11:20:10;7.43;;;2.65;;
65407;SDS011;52017;51.230;-2.322;2022-10-16T11:24:11;9.02;;;2.42;;
65407;SDS011;52017;51.230;-2.322;2022-10-16T11:32:16;7.63;;;2.00;;
65407;SDS011;52017;51.230;-2.322;2022-10-16T11:36:44;13.27;;;2.63;;
65407;SDS011;52017;51.230;-2.322;2022-10-16T11:40:33;10.82;;;2.90;;
65407;SDS011;52017;51.230;-2.322;2022-10-16T11:48:24;8.35;;;2.42;;
65407;SDS011;52017;51.230;-2.322;2022-10-16T11:52:22;10.00;;;2.53;;
65407;SDS011;52017;51.230;-2.322;2022-10-16T11:56:14;9.05;;;2.65;;
65407;SDS011;52017;51.230;-2.322;2022-10-16T12:08:02;12.52;;;2.92;;
65407;SDS011;52017;51.230;-2.322;2022-10-16T12:11:52;6.13;;;2.42;;
65407;SDS011;52017;51.230;-2.322;2022-10-16T12:15:38;11.05;;;3.13;;
65407;SDS011;52017;51.230;-2.322;2022-10-16T12:19:39;7.07;;;2.08;;
65407;SDS011;52017;51.230;-2.322;2022-10-16T12:23:22;8.00;;;2.05;;
65407;SDS011;52017;51.230;-2.322;2022-10-16T12:27:05;6.75;;;2.30;;
65407;SDS011;52017;51.230;-2.322;2022-10-16T12:31:02;12.70;;;2.45;;
65407;SDS011;52017;51.230;-2.322;2022-10-16T12:34:49;8.20;;;2.45;;
65407;SDS011;52017;51.230;-2.322;2022-10-16T12:42:32;9.80;;;2.38;;
65407;SDS011;52017;51.230;-2.322;2022-10-16T12:49:57;9.85;;;2.30;;
65407;SDS011;52017;51.230;-2.322;2022-10-16T12:53:45;9.43;;;2.00;;
65407;SDS011;52017;51.230;-2.322;2022-10-16T12:57:41;9.85;;;2.63;;
65407;SDS011;52017;51.230;-2.322;2022-10-16T13:09:25;5.90;;;1.83;;
65407;SDS011;52017;51.230;-2.322;2022-10-16T13:17:35;8.48;;;2.20;;
65407;SDS011;52017;51.230;-2.322;2022-10-16T13:29:23;9.18;;;2.30;;
65407;SDS011;52017;51.230;-2.322;2022-10-16T13:37:18;6.63;;;2.00;;
65407;SDS011;52017;51.230;-2.322;2022-10-16T13:41:02;6.63;;;1.90;;
65407;SDS011;52017;51.230;-2.322;2022-10-16T13:44:55;6.25;;;2.10;;
65407;SDS011;52017;51.230;-2.322;2022-10-16T13:48:38;8.73;;;2.20;;
65407;SDS011;52017;51.230;-2.322;2022-10-16T13:52:20;8.43;;;2.45;;
65407;SDS011;52017;51.230;-2.322;2022-10-16T13:56:04;7.65;;;2.30;;
65407;SDS011;52017;51.230;-2.322;2022-10-16T13:59:47;7.35;;;2.00;;
65407;SDS011;52017;51.230;-2.322;2022-10-16T14:03:29;8.52;;;2.85;;
65407;SDS011;52017;51.230;-2.322;2022-10-16T14:07:14;8.40;;;2.15;;
65407;SDS011;52017;51.230;-2.322;2022-10-16T14:11:20;10.13;;;3.42;;
65407;SDS011;52017;51.230;-2.322;2022-10-16T14:15:05;9.55;;;2.47;;
65407;SDS011;52017;51.230;-2.322;2022-10-16T14:18:58;10.73;;;2.35;;
65407;SDS011;52017;51.230;-2.322;2022-10-16T14:22:47;10.48;;;2.33;;
65407;SDS011;52017;51.230;-2.322;2022-10-16T14:26:59;10.57;;;2.70;;
65407;SDS011;52017;51.230;-2.322;2022-10-16T14:30:50;7.28;;;2.58;;
65407;SDS011;52017;51.230;-2.322;2022-10-16T14:34:37;14.63;;;2.50;;
65407;SDS011;52017;51.230;-2.322;2022-10-16T14:38:21;11.45;;;2.83;;
65407;SDS011;52017;51.230;-2.322;2022-10-16T14:42:03;12.07;;;2.92;;
65407;SDS011;52017;51.230;-2.322;2022-10-16T14:45:49;10.40;;;2.88;;
65407;SDS011;52017;51.230;-2.322;2022-10-16T14:49:37;10.35;;;2.80;;
65407;SDS011;52017;51.230;-2.322;2022-10-16T14:53:19;16.70;;;2.65;;
65407;SDS011;52017;51.230;-2.322;2022-10-16T14:57:01;7.85;;;2.40;;
65407;SDS011;52017;51.230;-2.322;2022-10-16T15:00:43;15.30;;;3.05;;
65407;SDS011;52017;51.230;-2.322;2022-10-16T15:04:26;11.95;;;3.08;;
65407;SDS011;52017;51.230;-2.322;2022-10-16T15:08:08;12.48;;;2.50;;
65407;SDS011;52017;51.230;-2.322;2022-10-16T15:11:50;11.73;;;2.65;;
65407;SDS011;52017;51.230;-2.322;2022-10-16T15:15:33;12.18;;;2.78;;
65407;SDS011;52017;51.230;-2.322;2022-10-16T15:19:17;12.38;;;2.80;;
65407;SDS011;52017;51.230;-2.322;2022-10-16T15:23:00;11.75;;;2.05;;
65407;SDS011;52017;51.230;-2.322;2022-10-16T15:26:49;10.68;;;2.53;;
65407;SDS011;52017;51.230;-2.322;2022-10-16T15:30:31;10.48;;;2.13;;
65407;SDS011;52017;51.230;-2.322;2022-10-16T15:34:14;12.88;;;3.28;;
65407;SDS011;52017;51.230;-2.322;2022-10-16T15:38:00;14.30;;;2.65;;
65407;SDS011;52017;51.230;-2.322;2022-10-16T15:41:43;13.40;;;2.65;;
65407;SDS011;52017;51.230;-2.322;2022-10-16T15:45:29;18.20;;;3.28;;
65407;SDS011;52017;51.230;-2.322;2022-10-16T15:49:11;10.13;;;2.30;;
65407;SDS011;52017;51.230;-2.322;2022-10-16T15:52:53;11.45;;;2.63;;
65407;SDS011;52017;51.230;-2.322;2022-10-16T15:56:35;11.30;;;2.20;;
65407;SDS011;52017;51.230;-2.322;2022-10-16T16:00:18;10.90;;;2.63;;
65407;SDS011;52017;51.230;-2.322;2022-10-16T16:04:05;12.02;;;2.38;;
65407;SDS011;52017;51.230;-2.322;2022-10-16T16:08:05;8.05;;;2.33;;
65407;SDS011;52017;51.230;-2.322;2022-10-16T16:11:48;9.60;;;2.25;;
65407;SDS011;52017;51.230;-2.322;2022-10-16T16:15:30;15.65;;;3.25;;
65407;SDS011;52017;51.230;-2.322;2022-10-16T16:19:12;12.25;;;2.92;;
65407;SDS011;52017;51.230;-2.322;2022-10-16T16:22:57;8.43;;;2.63;;
65407;SDS011;52017;51.230;-2.322;2022-10-16T16:26:39;10.57;;;2.70;;
65407;SDS011;52017;51.230;-2.322;2022-10-16T16:30:24;13.50;;;2.33;;
65407;SDS011;52017;51.230;-2.322;2022-10-16T16:34:08;12.02;;;2.45;;
65407;SDS011;52017;51.230;-2.322;2022-10-16T16:37:50;16.23;;;3.47;;
65407;SDS011;52017;51.230;-2.322;2022-10-16T16:41:32;11.73;;;2.63;;
65407;SDS011;52017;51.230;-2.322;2022-10-16T16:45:15;13.10;;;2.72;;
65407;SDS011;52017;51.230;-2.322;2022-10-16T16:48:57;10.67;;;2.20;;
65407;SDS011;52017;51.230;-2.322;2022-10-16T16:52:39;10.13;;;2.65;;
65407;SDS011;52017;51.230;-2.322;2022-10-16T16:56:22;9.40;;;3.03;;
65407;SDS011;52017;51.230;-2.322;2022-10-16T17:00:05;7.63;;;2.20;;
65407;SDS011;52017;51.230;-2.322;2022-10-16T17:03:48;6.87;;;1.90;;
65407;SDS011;52017;51.230;-2.322;2022-10-16T17:07:33;6.43;;;2.08;;
65407;SDS011;52017;51.230;-2.322;2022-10-16T17:11:16;6.30;;;1.63;;
65407;SDS011;52017;51.230;-2.322;2022-10-16T17:15:03;9.13;;;2.53;;
65407;SDS011;52017;51.230;-2.322;2022-10-16T17:18:45;7.80;;;2.03;;
65407;SDS011;52017;51.230;-2.322;2022-10-16T17:22:27;6.67;;;2.10;;
65407;SDS011;52017;51.230;-2.322;2022-10-16T17:26:11;4.30;;;1.47;;
65407;SDS011;52017;51.230;-2.322;2022-10-16T17:29:57;6.10;;;2.10;;
65407;SDS011;52017;51.230;-2.322;2022-10-16T17:33:39;7.97;;;1.90;;
65407;SDS011;52017;51.230;-2.322;2022-10-16T17:37:21;11.27;;;1.80;;
65407;SDS011;52017;51.230;-2.322;2022-10-16T17:41:20;4.60;;;1.43;;
65407;SDS011;52017;51.230;-2.322;2022-10-16T17:45:04;6.37;;;1.60;;
65407;SDS011;52017;51.230;-2.322;2022-10-16T17:48:47;3.97;;;1.40;;
65407;SDS011;52017;51.230;-2.322;2022-10-16T17:52:31;3.40;;;1.20;;
65407;SDS011;52017;51.230;-2.322;2022-10-16T17:56:13;6.90;;;2.03;;
65407;SDS011;52017;51.230;-2.322;2022-10-16T17:59:54;7.83;;;1.73;;
65407;SDS011;52017;51.230;-2.322;2022-10-16T18:03:37;5.07;;;1.63;;
65407;SDS011;52017;51.230;-2.322;2022-10-16T18:07:19;4.43;;;1.90;;
65407;SDS011;52017;51.230;-2.322;2022-10-16T18:11:01;2.13;;;0.70;;
65407;SDS011;52017;51.230;-2.322;2022-10-16T18:14:44;1.87;;;1.00;;
65407;SDS011;52017;51.230;-2.322;2022-10-16T18:18:25;2.90;;;1.77;;
65407;SDS011;52017;51.230;-2.322;2022-10-16T18:22:10;4.07;;;1.83;;
65407;SDS011;52017;51.230;-2.322;2022-10-16T18:25:52;4.33;;;1.70;;
65407;SDS011;52017;51.230;-2.322;2022-10-16T18:29:34;5.83;;;1.40;;
65407;SDS011;52017;51.230;-2.322;2022-10-16T18:33:18;6.00;;;3.30;;
65407;SDS011;52017;51.230;-2.322;2022-10-16T18:36:59;4.93;;;2.27;;
65407;SDS011;52017;51.230;-2.322;2022-10-16T18:40:42;7.97;;;2.23;;
65407;SDS011;52017;51.230;-2.322;2022-10-16T18:44:25;4.60;;;1.63;;
65407;SDS011;52017;51.230;-2.322;2022-10-16T18:48:07;5.27;;;2.00;;
65407;SDS011;52017;51.230;-2.322;2022-10-16T18:51:49;7.10;;;2.13;;
65407;SDS011;52017;51.230;-2.322;2022-10-16T18:55:36;4.87;;;1.83;;
65407;SDS011;52017;51.230;-2.322;2022-10-16T18:59:18;4.23;;;1.80;;
65407;SDS011;52017;51.230;-2.322;2022-10-16T19:03:00;4.13;;;1.73;;
65407;SDS011;52017;51.230;-2.322;2022-10-16T19:06:43;3.57;;;1.53;;
65407;SDS011;52017;51.230;-2.322;2022-10-16T19:10:27;2.93;;;1.20;;
65407;SDS011;52017;51.230;-2.322;2022-10-16T19:14:10;6.70;;;1.87;;
65407;SDS011;52017;51.230;-2.322;2022-10-16T19:17:53;3.27;;;1.47;;
65407;SDS011;52017;51.230;-2.322;2022-10-16T19:21:36;4.27;;;2.00;;
65407;SDS011;52017;51.230;-2.322;2022-10-16T19:25:21;2.90;;;1.43;;
65407;SDS011;52017;51.230;-2.322;2022-10-16T19:29:03;2.97;;;1.20;;
65407;SDS011;52017;51.230;-2.322;2022-10-16T19:32:46;5.30;;;1.90;;
65407;SDS011;52017;51.230;-2.322;2022-10-16T19:36:30;3.37;;;1.53;;
65407;SDS011;52017;51.230;-2.322;2022-10-16T19:40:14;5.33;;;1.83;;
65407;SDS011;52017;51.230;-2.322;2022-10-16T19:44:00;3.93;;;1.47;;
65407;SDS011;52017;51.230;-2.322;2022-10-16T19:47:42;6.40;;;1.80;;
65407;SDS011;52017;51.230;-2.322;2022-10-16T19:51:26;3.80;;;1.73;;
65407;SDS011;52017;51.230;-2.322;2022-10-16T19:55:09;5.90;;;2.10;;
65407;SDS011;52017;51.230;-2.322;2022-10-16T19:58:51;5.40;;;1.67;;
65407;SDS011;52017;51.230;-2.322;2022-10-16T20:02:35;6.07;;;2.20;;
65407;SDS011;52017;51.230;-2.322;2022-10-16T20:06:17;5.47;;;1.60;;
65407;SDS011;52017;51.230;-2.322;2022-10-16T20:10:01;4.60;;;1.70;;
65407;SDS011;52017;51.230;-2.322;2022-10-16T20:13:43;7.35;;;1.85;;
65407;SDS011;52017;51.230;-2.322;2022-10-16T20:17:25;8.90;;;1.93;;
65407;SDS011;52017;51.230;-2.322;2022-10-16T20:21:11;5.57;;;1.50;;
65407;SDS011;52017;51.230;-2.322;2022-10-16T20:24:54;8.02;;;2.28;;
65407;SDS011;52017;51.230;-2.322;2022-10-16T20:28:37;7.18;;;2.10;;
65407;SDS011;52017;51.230;-2.322;2022-10-16T20:32:20;5.95;;;1.88;;
65407;SDS011;52017;51.230;-2.322;2022-10-16T20:36:02;4.20;;;1.63;;
65407;SDS011;52017;51.230;-2.322;2022-10-16T20:39:44;8.38;;;2.38;;
65407;SDS011;52017;51.230;-2.322;2022-10-16T20:43:27;6.95;;;2.60;;
65407;SDS011;52017;51.230;-2.322;2022-10-16T20:47:09;7.90;;;1.77;;
65407;SDS011;52017;51.230;-2.322;2022-10-16T20:50:51;6.72;;;1.60;;
65407;SDS011;52017;51.230;-2.322;2022-10-16T20:54:34;5.30;;;1.77;;
65407;SDS011;52017;51.230;-2.322;2022-10-16T20:58:16;5.30;;;2.03;;
65407;SDS011;52017;51.230;-2.322;2022-10-16T21:01:58;10.32;;;1.83;;
65407;SDS011;52017;51.230;-2.322;2022-10-16T21:05:43;8.48;;;1.70;;
65407;SDS011;52017;51.230;-2.322;2022-10-16T21:09:25;7.72;;;2.00;;
65407;SDS011;52017;51.230;-2.322;2022-10-16T21:13:07;9.48;;;2.75;;
65407;SDS011;52017;51.230;-2.322;2022-10-16T21:16:49;6.13;;;2.00;;
65407;SDS011;52017;51.230;-2.322;2022-10-16T21:20:31;6.15;;;1.77;;
65407;SDS011;52017;51.230;-2.322;2022-10-16T21:24:13;7.65;;;1.90;;
65407;SDS011;52017;51.230;-2.322;2022-10-16T21:27:57;5.13;;;1.60;;
65407;SDS011;52017;51.230;-2.322;2022-10-16T21:31:39;7.55;;;1.55;;
65407;SDS011;52017;51.230;-2.322;2022-10-16T21:35:22;7.53;;;2.17;;
65407;SDS011;52017;51.230;-2.322;2022-10-16T21:39:08;6.68;;;1.85;;
65407;SDS011;52017;51.230;-2.322;2022-10-16T21:42:51;7.22;;;1.95;;
65407;SDS011;52017;51.230;-2.322;2022-10-16T21:46:34;9.07;;;1.33;;
65407;SDS011;52017;51.230;-2.322;2022-10-16T21:50:17;6.93;;;1.88;;
65407;SDS011;52017;51.230;-2.322;2022-10-16T21:53:59;13.10;;;1.50;;
65407;SDS011;52017;51.230;-2.322;2022-10-16T21:57:41;7.43;;;1.70;;
65407;SDS011;52017;51.230;-2.322;2022-10-16T22:01:24;6.82;;;1.52;;
65407;SDS011;52017;51.230;-2.322;2022-10-16T22:05:07;7.93;;;2.00;;
65407;SDS011;52017;51.230;-2.322;2022-10-16T22:08:50;7.03;;;1.55;;
65407;SDS011;52017;51.230;-2.322;2022-10-16T22:12:33;3.22;;;1.48;;
65407;SDS011;52017;51.230;-2.322;2022-10-16T22:16:18;7.73;;;1.57;;
65407;SDS011;52017;51.230;-2.322;2022-10-16T22:20:00;8.25;;;1.45;;
65407;SDS011;52017;51.230;-2.322;2022-10-16T22:23:43;8.60;;;1.73;;
65407;SDS011;52017;51.230;-2.322;2022-10-16T22:27:25;8.07;;;1.70;;
65407;SDS011;52017;51.230;-2.322;2022-10-16T22:31:08;8.50;;;1.60;;
65407;SDS011;52017;51.230;-2.322;2022-10-16T22:34:51;10.45;;;1.65;;
65407;SDS011;52017;51.230;-2.322;2022-10-16T22:38:34;6.25;;;1.63;;
65407;SDS011;52017;51.230;-2.322;2022-10-16T22:42:16;9.88;;;1.80;;
65407;SDS011;52017;51.230;-2.322;2022-10-16T22:46:02;9.57;;;1.90;;
65407;SDS011;52017;51.230;-2.322;2022-10-16T22:49:45;7.22;;;1.80;;
65407;SDS011;52017;51.230;-2.322;2022-10-16T22:53:27;9.30;;;1.60;;
65407;SDS011;52017;51.230;-2.322;2022-10-16T22:57:10;7.05;;;1.88;;
65407;SDS011;52017;51.230;-2.322;2022-10-16T23:00:52;9.85;;;2.40;;
65407;SDS011;52017;51.230;-2.322;2022-10-16T23:04:34;9.20;;;1.92;;
65407;SDS011;52017;51.230;-2.322;2022-10-16T23:08:16;7.38;;;1.65;;
65407;SDS011;52017;51.230;-2.322;2022-10-16T23:11:58;11.48;;;2.15;;
65407;SDS011;52017;51.230;-2.322;2022-10-16T23:15:40;4.93;;;1.42;;
65407;SDS011;52017;51.230;-2.322;2022-10-16T23:19:23;6.67;;;1.67;;
65407;SDS011;52017;51.230;-2.322;2022-10-16T23:23:05;10.07;;;2.13;;
65407;SDS011;52017;51.230;-2.322;2022-10-16T23:26:48;6.32;;;1.60;;
65407;SDS011;52017;51.230;-2.322;2022-10-16T23:30:30;9.75;;;2.40;;
65407;SDS011;52017;51.230;-2.322;2022-10-16T23:34:11;8.30;;;2.42;;
65407;SDS011;52017;51.230;-2.322;2022-10-16T23:37:54;10.95;;;2.50;;
65407;SDS011;52017;51.230;-2.322;2022-10-16T23:41:36;8.80;;;2.00;;
65407;SDS011;52017;51.230;-2.322;2022-10-16T23:45:18;6.60;;;1.85;;
65407;SDS011;52017;51.230;-2.322;2022-10-16T23:49:00;9.30;;;2.03;;
65407;SDS011;52017;51.230;-2.322;2022-10-16T23:52:41;15.95;;;3.15;;
65407;SDS011;52017;51.230;-2.322;2022-10-16T23:56:23;12.02;;;2.63;;
